createdAt,value
2023-03-03T00:00:36.883Z,99391.69
2023-03-03T00:05:43.252Z,99404.34
2023-03-03T00:10:47.564Z,99411.41
2023-03-03T00:15:53.142Z,99404.56
2023-03-03T00:21:04.673Z,99409.66
2023-03-03T00:26:35.053Z,99410.50
2023-03-03T00:31:38.806Z,99399.09
2023-03-03T00:36:44.138Z,99416.78
2023-03-03T00:41:51.356Z,99412.78
2023-03-03T00:46:56.678Z,99413.53
2023-03-03T00:52:01.253Z,99418.69
2023-03-03T00:57:04.944Z,99410.13
2023-03-03T01:02:08.890Z,99403.31
2023-03-03T01:07:13.328Z,99404.41
2023-03-03T01:12:17.589Z,99404.31
2023-03-03T01:17:22.168Z,99409.47
2023-03-03T01:22:25.876Z,99334.06
2023-03-03T01:27:30.892Z,99396.28
2023-03-03T01:32:34.648Z,99408.72
2023-03-03T01:37:40.515Z,99412.88
2023-03-03T01:42:44.165Z,99387.56
2023-03-03T01:48:05.637Z,99399.19
2023-03-03T01:53:17.466Z,99402.75
2023-03-03T01:58:25.037Z,99400.75
2023-03-03T02:03:29.198Z,99367.38
2023-03-03T02:08:42.930Z,99399.66
2023-03-03T02:13:46.543Z,99416.94
2023-03-03T02:18:50.810Z,99403.91
2023-03-03T02:24:24.165Z,99410.31
2023-03-03T02:29:28.326Z,99362.31
2023-03-03T02:34:35.482Z,99431.50
2023-03-03T02:39:40.494Z,99432.00
2023-03-03T02:44:45.975Z,99422.19
2023-03-03T02:49:49.956Z,99410.44
2023-03-03T02:54:56.615Z,99409.00
2023-03-03T03:00:01.552Z,99424.09
2023-03-03T03:05:09.712Z,99427.75
2023-03-03T03:10:16.841Z,99357.44
2023-03-03T03:15:22.605Z,99441.13
2023-03-03T03:20:27.793Z,99428.31
2023-03-03T03:25:32.722Z,99444.44
2023-03-03T03:30:37.392Z,99428.69
2023-03-03T03:35:46.373Z,99431.69
2023-03-03T03:40:53.361Z,99431.28
2023-03-03T03:45:57.346Z,99437.84
2023-03-03T03:51:03.939Z,99432.16
2023-03-03T03:56:09.067Z,99442.09
2023-03-03T04:01:13.475Z,99445.50
2023-03-03T04:06:23.944Z,99442.66
2023-03-03T04:11:29.205Z,99401.44
2023-03-03T04:16:33.351Z,99441.09
2023-03-03T04:21:37.235Z,99445.34
2023-03-03T04:26:41.742Z,99413.34
2023-03-03T04:31:47.764Z,99374.34
2023-03-03T04:36:52.388Z,99423.75
2023-03-03T04:41:56.395Z,99436.09
2023-03-03T04:47:02.558Z,99418.28
2023-03-03T04:52:08.114Z,99429.50
2023-03-03T04:57:13.406Z,99430.94
2023-03-03T05:02:18.089Z,99417.13
2023-03-03T05:07:23.360Z,99419.50
2023-03-03T05:12:28.121Z,99420.56
2023-03-03T05:17:31.976Z,99430.63
2023-03-03T05:22:35.866Z,99442.06
2023-03-03T05:27:41.042Z,99451.25
2023-03-03T05:32:45.078Z,99447.22
2023-03-03T05:37:50.805Z,99394.91
2023-03-03T05:42:54.819Z,99457.91
2023-03-03T05:47:58.716Z,99461.78
2023-03-03T05:53:03.373Z,99451.22
2023-03-03T05:58:07.128Z,99456.19
2023-03-03T06:03:11.997Z,99470.25
2023-03-03T06:08:15.819Z,99453.03
2023-03-03T06:13:20.724Z,99456.78
2023-03-03T06:18:24.732Z,99390.03
2023-03-03T06:23:28.817Z,99463.00
2023-03-03T06:28:33.519Z,99439.38
2023-03-03T06:33:39.028Z,99410.25
2023-03-03T06:38:43.756Z,99443.66
2023-03-03T06:43:47.552Z,99437.31
2023-03-03T06:48:51.424Z,99441.53
2023-03-03T06:54:05.550Z,99445.00
2023-03-03T06:59:30.641Z,99445.63
2023-03-03T07:04:35.152Z,99426.09
2023-03-03T07:09:39.308Z,99418.69
2023-03-03T07:14:47.121Z,99411.75
2023-03-03T07:19:54.166Z,99401.81
2023-03-03T07:25:06.135Z,99402.47
2023-03-03T07:30:28.883Z,99400.50
2023-03-03T07:35:45.700Z,99399.25
2023-03-03T07:40:53.328Z,99418.19
2023-03-03T07:46:05.335Z,99357.00
2023-03-03T07:51:42.663Z,99375.22
2023-03-03T07:56:47.616Z,99318.69
2023-03-03T08:01:59.403Z,99397.38
2023-03-03T08:07:04.939Z,99374.19
2023-03-03T08:12:08.641Z,99374.91
2023-03-03T08:17:37.247Z,99394.38
2023-03-03T08:22:41.150Z,99389.41
2023-03-03T08:27:45.145Z,99382.38
2023-03-03T08:32:49.246Z,99364.88
2023-03-03T08:37:54.339Z,99363.94
2023-03-03T08:42:58.863Z,99363.63
2023-03-03T08:48:05.518Z,99351.63
2023-03-03T08:53:11.765Z,99331.88
2023-03-03T08:58:20.381Z,99296.16
2023-03-03T09:03:25.051Z,99318.72
2023-03-03T09:08:29.012Z,99323.47
2023-03-03T09:13:33.883Z,99320.88
2023-03-03T09:18:39.590Z,99321.59
2023-03-03T09:23:49.021Z,99321.41
2023-03-03T09:28:54.179Z,99318.09
2023-03-03T09:33:59.951Z,99259.50
2023-03-03T09:39:31.215Z,99304.13
2023-03-03T09:44:34.956Z,99287.16
2023-03-03T09:50:00.257Z,99283.94
2023-03-03T09:55:12.517Z,99265.94
2023-03-03T10:00:38.122Z,99253.31
2023-03-03T10:05:58.979Z,99245.56
2023-03-03T10:11:27.623Z,99217.94
2023-03-03T10:16:50.896Z,99244.72
2023-03-03T10:22:26.139Z,99251.56
2023-03-03T10:27:40.560Z,99260.94
2023-03-03T10:33:22.692Z,99250.50
2023-03-03T10:38:34.653Z,99250.69
2023-03-03T10:43:58.533Z,99251.06
2023-03-03T10:49:18.750Z,99260.06
2023-03-03T11:01:18.960Z,99251.44
2023-03-03T11:06:48.108Z,99245.94
2023-03-03T11:12:20.148Z,99202.44
2023-03-03T11:17:56.917Z,99168.19
2023-03-03T11:23:21.152Z,99218.88
2023-03-03T11:28:50.355Z,99203.97
2023-03-03T11:34:09.044Z,99193.41
2023-03-03T11:39:19.781Z,99188.00
2023-03-03T11:44:36.897Z,99159.28
2023-03-03T11:49:55.736Z,99145.81
2023-03-03T11:55:19.156Z,99127.31
2023-03-03T12:01:04.070Z,99110.66
2023-03-03T12:06:32.928Z,99125.59
2023-03-03T12:11:42.985Z,99101.13
2023-03-03T12:16:58.333Z,99100.69
2023-03-03T12:22:15.035Z,99099.97
2023-03-03T12:27:49.730Z,99100.16
2023-03-03T12:33:12.136Z,99098.16
2023-03-03T12:38:22.001Z,99096.13
2023-03-03T12:43:37.108Z,99092.06
2023-03-03T12:48:49.095Z,99093.91
2023-03-03T12:54:06.242Z,99088.13
2023-03-03T12:59:27.534Z,99093.28
2023-03-03T13:04:41.483Z,99073.88
2023-03-03T13:10:20.380Z,99070.47
2023-03-03T13:15:38.006Z,99069.47
2023-03-03T13:21:00.626Z,99072.78
2023-03-03T13:26:18.328Z,99051.47
2023-03-03T13:31:25.364Z,99059.81
2023-03-03T13:37:12.157Z,99043.81
2023-03-03T13:42:44.839Z,99029.19
2023-03-03T13:48:17.504Z,99010.25
2023-03-03T13:53:49.002Z,99027.53
2023-03-03T13:59:11.129Z,99012.34
2023-03-03T14:04:40.657Z,98998.00
2023-03-03T14:10:11.592Z,99002.31
2023-03-03T14:15:26.169Z,98993.13
2023-03-03T14:20:34.278Z,98972.81
2023-03-03T14:26:13.268Z,98977.31
2023-03-03T14:31:19.241Z,98966.56
2023-03-03T14:36:37.404Z,98970.81
2023-03-03T14:41:43.113Z,98975.22
2023-03-03T14:46:47.033Z,98977.81
2023-03-03T14:51:53.004Z,98976.88
2023-03-03T14:57:08.120Z,98972.75
2023-03-03T15:02:18.292Z,98988.19
2023-03-03T15:07:23.412Z,98995.09
2023-03-03T15:12:42.910Z,99003.38
2023-03-03T15:18:05.681Z,99025.16
2023-03-03T15:24:08.199Z,99027.91
2023-03-03T15:29:19.370Z,99043.81
2023-03-03T15:34:38.171Z,99037.38
2023-03-03T15:40:21.858Z,99061.91
2023-03-03T15:45:34.612Z,99063.09
2023-03-03T15:50:45.752Z,99067.66
2023-03-03T15:56:21.633Z,99081.53
2023-03-03T16:01:40.265Z,99083.72
2023-03-03T16:07:01.504Z,99112.50
2023-03-03T16:12:27.237Z,99110.03
2023-03-03T16:17:57.361Z,99117.75
2023-03-03T16:23:30.197Z,99131.59
2023-03-03T16:28:59.978Z,99143.00
2023-03-03T16:34:18.883Z,99136.28
2023-03-03T16:39:56.338Z,99137.88
2023-03-03T16:45:27.567Z,99163.34
2023-03-03T16:50:58.960Z,99179.78
2023-03-03T16:56:50.658Z,99189.50
2023-03-03T17:02:21.930Z,99190.00
2023-03-03T17:07:38.464Z,99202.53
2023-03-03T17:12:55.182Z,99209.47
2023-03-03T17:18:29.342Z,99233.63
2023-03-03T17:23:54.770Z,99245.22
2023-03-03T17:29:44.357Z,99249.03
2023-03-03T17:35:10.792Z,99257.13
2023-03-03T17:40:54.107Z,99292.94
2023-03-03T17:46:04.398Z,99319.16
2023-03-03T17:51:22.834Z,99305.09
2023-03-03T17:56:59.134Z,99326.19
2023-03-03T18:02:39.949Z,99350.66
2023-03-03T18:07:56.159Z,99368.47
2023-03-03T18:13:25.684Z,99373.25
2023-03-03T18:19:01.132Z,99383.09
2023-03-03T18:24:26.717Z,99407.41
2023-03-03T18:29:30.753Z,99438.59
2023-03-03T18:34:40.951Z,99468.28
2023-03-03T18:39:50.678Z,99490.22
2023-03-03T18:44:55.342Z,99513.56
2023-03-03T18:50:25.470Z,99521.34
2023-03-03T18:55:29.500Z,99528.66
2023-03-03T19:00:34.352Z,99565.75
2023-03-03T19:05:51.330Z,99581.78
2023-03-03T19:10:59.528Z,99603.56
2023-03-03T19:16:08.070Z,99626.31
2023-03-03T19:21:11.802Z,99643.03
2023-03-03T19:26:31.093Z,99655.25
2023-03-03T19:32:14.470Z,99681.84
2023-03-03T19:37:40.098Z,99694.94
2023-03-03T19:42:52.698Z,99703.84
2023-03-03T19:48:32.908Z,99727.84
2023-03-03T19:53:55.286Z,99725.56
2023-03-03T19:59:19.447Z,99756.50
2023-03-03T20:05:00.312Z,99765.16
2023-03-03T20:10:43.289Z,99776.41
2023-03-03T20:16:17.394Z,99791.25
2023-03-03T20:21:28.375Z,99802.75
2023-03-03T20:26:58.744Z,99812.31
2023-03-03T20:32:14.644Z,99818.41
2023-03-03T20:37:53.805Z,99840.72
2023-03-03T20:43:22.446Z,99859.66
2023-03-03T20:48:34.709Z,99871.69
2023-03-03T20:53:50.480Z,99881.22
2023-03-03T20:59:04.109Z,99881.38
2023-03-03T21:04:25.454Z,99911.38
2023-03-03T21:09:42.371Z,99911.66
2023-03-03T21:15:12.877Z,99932.75
2023-03-03T21:20:26.477Z,99949.03
2023-03-03T21:25:46.187Z,99970.34
2023-03-03T21:31:05.066Z,99997.53
2023-03-03T21:36:10.401Z,99997.47
2023-03-03T21:41:18.181Z,100019.47
2023-03-03T21:46:26.210Z,100018.59
2023-03-03T21:51:30.056Z,100032.09
2023-03-03T21:56:36.207Z,100021.97
2023-03-03T22:01:39.981Z,100032.88
2023-03-03T22:06:44.054Z,100031.22
2023-03-03T22:11:48.145Z,100046.59
2023-03-03T22:16:53.198Z,100044.84
2023-03-03T22:21:57.422Z,100061.09
2023-03-03T22:27:04.112Z,100084.81
2023-03-03T22:32:08.023Z,100097.56
2023-03-03T22:37:12.041Z,100084.97
2023-03-03T22:42:16.044Z,100095.00
2023-03-03T22:47:19.886Z,100028.78
2023-03-03T22:52:26.991Z,100109.44
2023-03-03T22:57:31.847Z,100027.25
2023-03-03T23:02:37.219Z,100118.03
2023-03-03T23:07:41.586Z,100109.75
2023-03-03T23:12:46.400Z,100153.81
2023-03-03T23:17:50.294Z,100138.66
2023-03-03T23:22:55.440Z,100121.81
2023-03-03T23:27:59.497Z,100153.06
2023-03-03T23:33:05.410Z,100156.56
2023-03-03T23:38:09.277Z,100168.34
2023-03-03T23:43:13.825Z,100185.44
2023-03-03T23:48:17.561Z,100175.94
2023-03-03T23:53:23.387Z,100201.47
2023-03-03T23:58:27.118Z,100208.28
